createdAt,value
2018-09-05T00:00:35.484Z,16.73
2018-09-05T00:03:06.782Z,18.20
2018-09-05T00:05:37.564Z,13.72
2018-09-05T00:08:08.480Z,17.42
2018-09-05T00:10:39.565Z,17.32
2018-09-05T00:13:10.505Z,13.85
2018-09-05T00:15:41.531Z,17.67
2018-09-05T00:18:12.521Z,18.35
2018-09-05T00:20:43.514Z,36.77
2018-09-05T00:23:14.494Z,19.42
2018-09-05T00:25:45.494Z,18.92
2018-09-05T00:28:16.497Z,14.80
2018-09-05T00:30:47.509Z,18.15
2018-09-05T00:33:18.493Z,19.07
2018-09-05T00:35:49.474Z,14.85
2018-09-05T00:38:20.485Z,20.45
2018-09-05T00:40:51.477Z,18.82
2018-09-05T00:43:22.509Z,15.88
2018-09-05T00:45:53.457Z,19.77
2018-09-05T00:48:24.489Z,15.63
2018-09-05T00:50:55.486Z,19.95
2018-09-05T00:53:26.645Z,16.10
2018-09-05T00:55:57.529Z,18.50
2018-09-05T00:58:28.489Z,18.87
2018-09-05T01:00:59.532Z,20.85
2018-09-05T01:03:30.508Z,20.48
2018-09-05T01:06:01.484Z,21.05
2018-09-05T01:08:32.505Z,15.98
2018-09-05T01:11:03.498Z,20.02
2018-09-05T01:13:34.497Z,16.02
2018-09-05T01:16:05.642Z,20.95
2018-09-05T01:18:36.560Z,15.80
2018-09-05T01:21:07.577Z,20.52
2018-09-05T01:23:38.484Z,16.32
2018-09-05T01:26:09.451Z,20.30
2018-09-05T01:28:40.441Z,16.45
2018-09-05T01:31:11.485Z,21.42
2018-09-05T01:33:42.502Z,17.30
2018-09-05T01:36:17.668Z,21.23
2018-09-05T01:38:48.563Z,21.42
2018-09-05T01:41:19.541Z,21.82
2018-09-05T01:43:50.501Z,16.85
2018-09-05T01:46:21.491Z,20.62
2018-09-05T01:48:52.508Z,17.80
2018-09-05T01:51:23.485Z,22.67
2018-09-05T01:53:54.479Z,17.48
2018-09-05T01:56:25.456Z,22.95
2018-09-05T01:58:56.478Z,18.55
2018-09-05T02:01:27.473Z,22.32
2018-09-05T02:03:58.497Z,23.00
2018-09-05T02:06:29.464Z,23.55
2018-09-05T02:09:00.674Z,23.22
2018-09-05T02:11:31.497Z,24.50
2018-09-05T02:14:02.437Z,23.38
2018-09-05T02:16:33.473Z,23.05
2018-09-05T02:19:04.461Z,24.27
2018-09-05T02:21:35.520Z,23.10
2018-09-05T02:24:06.500Z,24.40
2018-09-05T02:26:37.508Z,23.57
2018-09-05T02:29:08.479Z,18.25
2018-09-05T02:31:39.410Z,24.00
2018-09-05T02:34:10.444Z,24.98
2018-09-05T02:36:41.438Z,24.50
2018-09-05T02:39:13.210Z,18.20
2018-09-05T02:41:44.345Z,24.18
2018-09-05T02:44:21.605Z,23.50
2018-09-05T02:46:53.286Z,21.87
2018-09-05T02:49:24.366Z,17.67
2018-09-05T02:51:55.430Z,23.02
2018-09-05T02:59:42.583Z,23.50
2018-09-05T03:02:13.484Z,24.92
2018-09-05T03:04:44.461Z,24.77
2018-09-05T03:07:15.463Z,24.07
2018-09-05T03:09:46.485Z,19.57
2018-09-05T03:12:22.777Z,23.85
2018-09-05T03:14:53.818Z,26.52
2018-09-05T03:17:24.645Z,25.37
2018-09-05T03:19:55.496Z,20.92
2018-09-05T03:22:26.498Z,26.62
2018-09-05T03:24:57.519Z,26.80
2018-09-05T03:27:28.474Z,27.55
2018-09-05T03:29:59.650Z,21.87
2018-09-05T03:32:30.737Z,27.95
2018-09-05T03:35:01.460Z,21.85
2018-09-05T03:37:32.464Z,26.25
2018-09-05T03:40:03.695Z,27.50
2018-09-05T03:42:34.556Z,28.15
2018-09-05T03:45:05.521Z,28.47
2018-09-05T03:47:36.487Z,21.33
2018-09-05T03:50:09.018Z,29.20
2018-09-05T03:52:40.284Z,28.55
2018-09-05T03:55:11.364Z,30.23
2018-09-05T03:57:42.424Z,30.05
2018-09-05T04:00:13.521Z,28.23
2018-09-05T04:02:44.481Z,28.80
2018-09-05T04:05:15.506Z,29.15
2018-09-05T04:07:46.525Z,29.95
2018-09-05T04:10:17.583Z,29.87
2018-09-05T04:12:48.529Z,31.12
2018-09-05T04:15:19.568Z,30.17
2018-09-05T04:17:50.517Z,31.70
2018-09-05T04:20:21.534Z,30.68
2018-09-05T04:22:52.519Z,31.17
2018-09-05T04:25:23.526Z,30.43
2018-09-05T04:27:54.474Z,31.37
2018-09-05T04:30:25.556Z,32.42
2018-09-05T04:32:56.513Z,33.30
2018-09-05T04:35:27.518Z,32.63
2018-09-05T04:37:58.512Z,33.55
2018-09-05T04:40:29.515Z,31.82
2018-09-05T04:43:00.480Z,33.15
2018-09-05T04:45:31.531Z,34.48
2018-09-05T04:48:02.456Z,33.67
2018-09-05T04:50:33.525Z,32.80
2018-09-05T04:53:04.489Z,26.37
2018-09-05T04:55:35.449Z,30.92
2018-09-05T04:58:06.513Z,32.75
2018-09-05T05:00:37.477Z,34.05
2018-09-05T05:03:08.378Z,35.35
2018-09-05T05:05:39.565Z,33.60
2018-09-05T05:08:10.466Z,31.37
2018-09-05T05:10:41.678Z,34.98
2018-09-05T05:13:12.522Z,35.15
2018-09-05T05:15:43.509Z,29.02
2018-09-05T05:18:14.460Z,35.25
2018-09-05T05:20:45.450Z,29.92
2018-09-05T05:23:16.578Z,30.02
2018-09-05T05:25:47.569Z,34.18
2018-09-05T05:28:18.485Z,32.48
2018-09-05T05:30:49.495Z,28.95
2018-09-05T05:33:20.469Z,29.18
2018-09-05T05:35:51.461Z,30.00
2018-09-05T05:38:22.466Z,29.57
2018-09-05T05:40:53.485Z,24.75
2018-09-05T05:43:24.421Z,31.65
2018-09-05T05:45:55.513Z,35.03
2018-09-05T05:48:26.468Z,39.08
2018-09-05T05:50:57.487Z,35.17
2018-09-05T05:53:28.570Z,35.55
2018-09-05T05:55:59.497Z,27.77
2018-09-05T05:58:30.716Z,32.85
2018-09-05T06:01:01.691Z,31.65
2018-09-05T06:03:32.469Z,26.27
2018-09-05T06:06:03.504Z,34.05
2018-09-05T06:08:34.446Z,33.78
2018-09-05T06:11:05.754Z,32.75
2018-09-05T06:13:36.590Z,37.70
2018-09-05T06:16:07.529Z,33.55
2018-09-05T06:18:39.127Z,35.38
2018-09-05T06:21:10.463Z,35.28
2018-09-05T06:23:41.448Z,38.48
2018-09-05T06:26:12.480Z,36.03
2018-09-05T06:28:43.458Z,36.08
2018-09-05T06:31:14.614Z,38.10
2018-09-05T06:33:45.473Z,34.33
2018-09-05T06:36:16.489Z,26.77
2018-09-05T06:38:47.493Z,32.65
2018-09-05T06:41:18.548Z,33.95
2018-09-05T06:43:49.485Z,31.40
2018-09-05T06:46:20.464Z,33.10
2018-09-05T06:48:51.526Z,31.90
2018-09-05T06:51:22.529Z,25.00
2018-09-05T06:53:53.478Z,30.60
2018-09-05T06:56:24.502Z,24.37
2018-09-05T06:58:55.496Z,29.90
2018-09-05T07:01:26.460Z,30.27
2018-09-05T07:03:57.608Z,22.95
2018-09-05T07:06:28.481Z,28.00
2018-09-05T07:08:59.481Z,30.32
2018-09-05T07:11:30.483Z,21.77
2018-09-05T07:14:02.457Z,27.42
2018-09-05T07:16:33.458Z,20.45
2018-09-05T07:19:06.245Z,27.67
2018-09-05T07:21:37.681Z,25.08
2018-09-05T07:24:08.693Z,20.37
2018-09-05T07:26:39.586Z,24.67
2018-09-05T07:29:10.578Z,19.48
2018-09-05T07:31:41.553Z,19.75
2018-09-05T07:34:12.489Z,24.52
2018-09-05T07:36:43.482Z,18.40
2018-09-05T07:39:14.510Z,18.77
2018-09-05T07:41:45.450Z,24.43
2018-09-05T07:44:16.449Z,18.57
2018-09-05T07:46:47.468Z,24.37
2018-09-05T07:49:18.444Z,18.20
2018-09-05T07:51:49.570Z,23.18
2018-09-05T07:54:20.565Z,17.60
2018-09-05T07:56:51.501Z,18.87
2018-09-05T07:59:22.478Z,24.60
2018-09-05T08:01:53.497Z,18.67
2018-09-05T08:04:24.458Z,21.93
2018-09-05T08:06:55.476Z,17.87
2018-09-05T08:09:26.494Z,23.75
2018-09-05T08:11:57.489Z,17.55
2018-09-05T08:14:28.462Z,17.12
2018-09-05T08:16:59.449Z,20.77
2018-09-05T08:19:30.457Z,17.12
2018-09-05T08:22:01.406Z,20.20
2018-09-05T08:24:32.513Z,15.95
2018-09-05T08:27:03.515Z,16.90
2018-09-05T08:29:34.466Z,20.60
2018-09-05T08:32:05.472Z,17.60
2018-09-05T08:34:36.486Z,17.57
2018-09-05T08:37:07.665Z,15.78
2018-09-05T08:39:38.474Z,18.80
2018-09-05T08:42:09.517Z,14.78
2018-09-05T08:44:40.544Z,14.28
2018-09-05T08:47:11.526Z,14.50
2018-09-05T08:49:42.461Z,14.68
2018-09-05T08:52:13.518Z,14.35
2018-09-05T08:54:44.470Z,13.75
2018-09-05T08:57:15.491Z,14.70
2018-09-05T08:59:46.484Z,13.95
2018-09-05T09:02:17.522Z,16.02
2018-09-05T09:04:48.484Z,13.48
2018-09-05T09:07:19.629Z,13.25
2018-09-05T09:09:50.520Z,13.05
2018-09-05T09:12:21.543Z,14.58
2018-09-05T09:14:52.478Z,13.10
2018-09-05T09:17:23.464Z,12.28
2018-09-05T09:19:54.485Z,12.65
2018-09-05T09:22:25.490Z,12.73
2018-09-05T09:24:56.497Z,12.85
2018-09-05T09:27:27.489Z,13.13
2018-09-05T09:29:58.477Z,16.10
2018-09-05T09:32:29.505Z,12.93
2018-09-05T09:35:00.433Z,13.38
2018-09-05T09:37:31.465Z,13.10
2018-09-05T09:40:02.464Z,13.28
2018-09-05T09:42:33.497Z,15.45
2018-09-05T09:45:04.489Z,13.65
2018-09-05T09:47:35.465Z,15.70
2018-09-05T09:50:07.746Z,11.95
2018-09-05T09:52:39.017Z,13.18
2018-09-05T09:55:10.290Z,11.38
2018-09-05T09:57:41.387Z,13.43
2018-09-05T10:00:12.606Z,12.15
2018-09-05T10:02:48.544Z,11.80
2018-09-05T10:06:27.341Z,12.53
2018-09-05T10:09:03.444Z,12.23
2018-09-05T10:11:39.596Z,13.48
2018-09-05T10:14:16.451Z,15.93
2018-09-05T10:16:52.646Z,13.22
2018-09-05T10:19:23.545Z,12.82
2018-09-05T10:21:55.468Z,13.20
2018-09-05T10:24:26.485Z,15.65
2018-09-05T10:26:57.465Z,13.00
2018-09-05T10:29:28.463Z,12.55
2018-09-05T10:31:59.499Z,12.00
2018-09-05T10:34:30.495Z,15.98
2018-09-05T10:37:01.497Z,12.18
2018-09-05T10:39:32.570Z,12.73
2018-09-05T10:42:03.506Z,13.28
2018-09-05T10:44:34.497Z,12.37
2018-09-05T10:47:05.553Z,13.98
2018-09-05T10:49:36.502Z,11.38
2018-09-05T10:52:08.675Z,11.33
2018-09-05T10:54:39.497Z,13.38
2018-09-05T10:57:10.497Z,11.18
2018-09-05T11:02:24.498Z,9.80
2018-09-05T11:04:55.491Z,9.95
2018-09-05T11:07:26.537Z,9.60
2018-09-05T11:09:57.486Z,9.90
2018-09-05T11:12:28.513Z,10.28
2018-09-05T11:14:59.517Z,10.85
2018-09-05T11:17:30.505Z,10.72
2018-09-05T11:20:01.546Z,9.63
2018-09-05T11:22:32.521Z,10.50
2018-09-05T11:25:03.509Z,11.85
2018-09-05T11:27:34.610Z,9.95
2018-09-05T11:30:05.667Z,10.40
2018-09-05T11:32:36.602Z,9.98
2018-09-05T11:35:07.690Z,13.13
2018-09-05T11:37:38.561Z,9.60
2018-09-05T11:40:10.405Z,9.10
2018-09-05T11:42:41.507Z,9.00
2018-09-05T11:45:12.516Z,9.93
2018-09-05T11:47:43.602Z,9.50
2018-09-05T11:50:14.579Z,8.73
2018-09-05T11:52:45.625Z,8.93
2018-09-05T11:55:16.594Z,8.38
2018-09-05T11:57:47.649Z,8.73
2018-09-05T12:00:18.561Z,9.30
2018-09-05T12:02:49.521Z,8.28
2018-09-05T12:05:20.579Z,8.10
2018-09-05T12:07:51.567Z,7.97
2018-09-05T12:10:22.544Z,10.00
2018-09-05T12:12:54.018Z,7.95
2018-09-05T12:15:25.573Z,8.00
2018-09-05T12:17:56.496Z,8.05
2018-09-05T12:20:27.539Z,8.03
2018-09-05T12:22:58.536Z,7.40
2018-09-05T12:25:29.599Z,9.03
2018-09-05T12:28:00.721Z,8.45
2018-09-05T12:30:31.617Z,7.83
2018-09-05T12:33:02.560Z,9.28
2018-09-05T12:35:33.527Z,7.35
2018-09-05T12:38:04.591Z,7.60
2018-09-05T12:40:35.586Z,9.33
2018-09-05T12:43:06.700Z,9.18
2018-09-05T12:45:37.615Z,7.28
2018-09-05T12:48:09.551Z,9.28
2018-09-05T12:50:40.522Z,8.10
2018-09-05T12:53:11.578Z,7.95
2018-09-05T12:55:42.583Z,7.50
2018-09-05T12:58:13.630Z,8.08
2018-09-05T13:00:44.780Z,7.47
2018-09-05T13:03:15.925Z,8.38
2018-09-05T13:05:47.309Z,8.33
2018-09-05T13:08:18.406Z,10.40
2018-09-05T13:10:49.572Z,8.45
2018-09-05T13:13:20.602Z,10.13
2018-09-05T13:15:51.590Z,7.40
2018-09-05T13:18:22.494Z,7.58
2018-09-05T13:20:53.562Z,7.78
2018-09-05T13:23:24.759Z,11.05
2018-09-05T13:25:57.485Z,7.83
2018-09-05T13:28:31.565Z,9.10
2018-09-05T13:31:03.245Z,8.13
2018-09-05T13:36:06.925Z,7.45
2018-09-05T13:38:38.453Z,6.95
2018-09-05T13:41:09.694Z,7.95
2018-09-05T13:43:40.595Z,7.12
2018-09-05T13:46:12.514Z,7.00
2018-09-05T13:48:43.566Z,7.08
2018-09-05T13:51:14.592Z,7.15
2018-09-05T13:53:45.607Z,7.53
2018-09-05T13:56:16.600Z,8.28
2018-09-05T13:58:48.034Z,9.45
2018-09-05T14:01:19.450Z,6.67
2018-09-05T14:03:50.818Z,7.03
2018-09-05T14:06:21.704Z,7.08
2018-09-05T14:08:52.734Z,6.55
2018-09-05T14:11:23.718Z,7.30
2018-09-05T14:13:55.721Z,6.65
2018-09-05T14:16:26.718Z,6.80
2018-09-05T14:18:57.770Z,6.45
2018-09-05T14:21:29.184Z,6.90
2018-09-05T14:24:00.557Z,9.23
2018-09-05T14:26:31.658Z,6.67
2018-09-05T14:29:02.550Z,6.47
2018-09-05T14:31:35.046Z,7.20
2018-09-05T14:34:06.393Z,6.80
2018-09-05T14:36:37.589Z,7.30
2018-09-05T14:39:13.797Z,6.92
2018-09-05T14:41:44.591Z,7.92
2018-09-05T14:44:15.490Z,6.87
2018-09-05T14:46:46.470Z,7.37
2018-09-05T14:49:18.294Z,7.03
2018-09-05T14:51:51.466Z,7.90
2018-09-05T14:54:22.585Z,7.12
2018-09-05T14:56:53.485Z,6.83
2018-09-05T14:59:24.469Z,8.55
2018-09-05T15:01:55.505Z,7.10
2018-09-05T15:04:26.519Z,8.03
2018-09-05T15:06:57.580Z,6.60
2018-09-05T15:09:28.453Z,7.28
2018-09-05T15:11:59.574Z,7.45
2018-09-05T15:14:30.475Z,9.40
2018-09-05T15:17:02.374Z,8.83
2018-09-05T15:33:17.318Z,7.53
2018-09-05T15:35:52.735Z,8.73
2018-09-05T15:38:25.378Z,7.53
2018-09-05T15:41:01.376Z,11.53
2018-09-05T15:57:18.291Z,7.37
2018-09-05T15:59:57.477Z,9.30
2018-09-05T16:02:49.807Z,6.85
2018-09-05T16:05:20.561Z,9.28
2018-09-05T16:08:01.444Z,8.45
2018-09-05T16:10:52.308Z,9.20
2018-09-05T16:13:28.780Z,7.55
2018-09-05T16:16:19.068Z,11.75
2018-09-05T16:26:59.843Z,9.00
2018-09-05T16:29:31.432Z,8.10
2018-09-05T16:32:19.866Z,8.30
2018-09-05T16:35:00.227Z,7.15
2018-09-05T16:40:26.893Z,7.42
2018-09-05T16:43:01.621Z,8.48
2018-09-05T16:45:41.324Z,8.10
2018-09-05T16:48:20.863Z,8.55
2018-09-05T16:51:26.730Z,6.58
2018-09-05T16:53:57.554Z,8.85
2018-09-05T16:59:42.900Z,8.23
2018-09-05T17:02:45.009Z,6.62
2018-09-05T17:05:28.934Z,7.87
2018-09-05T17:08:07.438Z,7.30
2018-09-05T17:10:56.554Z,8.33
2018-09-05T17:13:34.416Z,6.90
2018-09-05T17:19:01.833Z,8.20
2018-09-05T17:21:53.838Z,14.83
2018-09-05T17:24:39.724Z,106.65
2018-09-05T17:27:18.583Z,21.75
2018-09-05T17:29:50.224Z,13.53
2018-09-05T17:32:22.290Z,11.57
2018-09-05T17:37:35.127Z,12.23
2018-09-05T17:40:13.209Z,10.13
2018-09-05T17:42:44.395Z,11.03
2018-09-05T17:45:28.773Z,7.85
2018-09-05T17:50:53.235Z,12.27
2018-09-05T17:53:28.936Z,9.30
2018-09-05T17:56:03.411Z,12.20
2018-09-05T17:58:34.640Z,9.68
2018-09-05T18:01:06.652Z,11.38
2018-09-05T18:03:37.589Z,12.18
2018-09-05T18:06:09.291Z,11.22
2018-09-05T18:08:41.444Z,10.00
2018-09-05T18:11:13.094Z,9.70
2018-09-05T18:13:45.506Z,7.35
2018-09-05T18:16:16.510Z,9.63
2018-09-05T18:18:47.658Z,8.40
2018-09-05T18:21:18.642Z,9.00
2018-09-05T18:23:49.549Z,6.42
2018-09-05T18:26:22.733Z,10.10
2018-09-05T18:28:54.183Z,7.47
2018-09-05T18:31:25.466Z,15.63
2018-09-05T18:33:56.485Z,10.58
2018-09-05T18:36:27.486Z,10.15
2018-09-05T18:38:58.453Z,8.05
2018-09-05T18:42:01.405Z,8.20
2018-09-05T18:44:32.593Z,10.80
2018-09-05T18:47:03.510Z,8.15
2018-09-05T18:49:34.437Z,9.68
2018-09-05T18:52:05.453Z,8.20
2018-09-05T18:54:36.432Z,9.00
2018-09-05T18:57:07.469Z,6.92
2018-09-05T18:59:38.424Z,11.53
2018-09-05T19:02:09.453Z,10.58
2018-09-05T19:04:40.460Z,12.93
2018-09-05T19:07:11.746Z,8.15
2018-09-05T19:09:42.685Z,10.65
2018-09-05T19:12:13.843Z,9.28
2018-09-05T19:14:44.711Z,11.78
2018-09-05T19:17:15.648Z,10.80
2018-09-05T19:19:48.186Z,11.28
2018-09-05T19:22:19.458Z,12.53
2018-09-05T19:24:50.552Z,9.08
2018-09-05T19:27:21.497Z,11.50
2018-09-05T19:29:52.539Z,9.70
2018-09-05T19:32:23.522Z,13.58
2018-09-05T19:35:03.624Z,32.45
2018-09-05T19:37:48.998Z,13.75
2018-09-05T19:40:20.288Z,9.30
2018-09-05T19:45:21.510Z,8.85
2018-09-05T19:47:53.464Z,8.70
2018-09-05T19:50:24.618Z,10.60
2018-09-05T19:52:55.770Z,8.70
2018-09-05T19:55:26.643Z,10.70
2018-09-05T19:57:57.674Z,7.72
2018-09-05T20:00:28.541Z,9.83
2018-09-05T20:03:05.163Z,7.72
2018-09-05T20:05:37.455Z,10.35
2018-09-05T20:08:08.658Z,7.58
2018-09-05T20:10:41.617Z,9.20
2018-09-05T20:13:13.094Z,8.25
2018-09-05T20:15:44.393Z,11.40
2018-09-05T20:18:15.626Z,8.15
2018-09-05T20:20:46.545Z,11.10
2018-09-05T20:23:17.514Z,8.25
2018-09-05T20:25:48.485Z,8.43
2018-09-05T20:28:25.007Z,10.90
2018-09-05T20:30:58.660Z,8.63
2018-09-05T20:36:54.462Z,12.60
2018-09-05T20:53:00.526Z,11.53
2018-09-05T20:55:31.564Z,12.80
2018-09-05T20:58:02.680Z,15.32
2018-09-05T21:00:33.549Z,10.53
2018-09-05T21:03:06.278Z,11.70
2018-09-05T21:08:07.698Z,12.10
2018-09-05T21:10:38.544Z,9.50
2018-09-05T21:13:09.473Z,13.50
2018-09-05T21:15:40.489Z,9.30
2018-09-05T21:18:11.646Z,10.65
2018-09-05T21:20:42.502Z,9.33
2018-09-05T21:23:13.441Z,11.93
2018-09-05T21:25:44.483Z,11.00
2018-09-05T21:28:15.597Z,8.93
2018-09-05T21:30:46.521Z,56.20
2018-09-05T21:33:17.813Z,17.67
2018-09-05T21:35:48.605Z,14.18
2018-09-05T21:38:19.568Z,10.68
2018-09-05T21:40:50.464Z,11.38
2018-09-05T21:43:21.434Z,9.85
2018-09-05T21:45:52.445Z,12.23
2018-09-05T21:48:23.516Z,10.58
2018-09-05T21:50:54.397Z,12.00
2018-09-05T21:53:25.449Z,9.78
2018-09-05T21:55:56.416Z,11.48
2018-09-05T21:58:27.469Z,10.75
2018-09-05T22:00:58.512Z,14.33
2018-09-05T22:03:29.421Z,10.38
2018-09-05T22:06:00.432Z,14.58
2018-09-05T22:08:31.468Z,13.25
2018-09-05T22:11:07.446Z,17.48
2018-09-05T22:13:38.665Z,10.35
2018-09-05T22:16:09.545Z,10.98
2018-09-05T22:18:40.508Z,16.93
2018-09-05T22:21:11.454Z,12.20
2018-09-05T22:23:42.445Z,10.20
2018-09-05T22:26:13.513Z,11.12
2018-09-05T22:28:44.472Z,9.38
2018-09-05T22:31:15.451Z,13.05
2018-09-05T22:33:46.466Z,9.80
2018-09-05T22:36:17.498Z,13.72
2018-09-05T22:38:48.519Z,9.08
2018-09-05T22:41:19.497Z,13.90
2018-09-05T22:44:13.449Z,9.48
2018-09-05T22:47:07.419Z,11.68
2018-09-05T22:52:15.439Z,8.95
2018-09-05T22:55:43.290Z,15.38
2018-09-05T22:58:44.441Z,9.10
2018-09-05T23:01:36.406Z,11.90
2018-09-05T23:06:55.220Z,9.20
2018-09-05T23:09:49.289Z,13.22
2018-09-05T23:12:43.255Z,9.23
2018-09-05T23:19:34.450Z,12.53
2018-09-05T23:22:05.492Z,9.55
2018-09-05T23:24:36.447Z,13.10
2018-09-05T23:27:07.469Z,10.65
2018-09-05T23:29:38.488Z,12.98
2018-09-05T23:32:09.459Z,10.53
2018-09-05T23:34:40.458Z,18.07
2018-09-05T23:37:11.445Z,10.13
2018-09-05T23:39:42.485Z,13.03
2018-09-05T23:42:13.490Z,13.08
2018-09-05T23:44:44.554Z,12.35
2018-09-05T23:47:15.538Z,9.20
2018-09-05T23:49:46.497Z,12.88
2018-09-05T23:52:17.463Z,12.63
2018-09-05T23:54:48.493Z,10.03
2018-09-05T23:57:19.504Z,12.00
2018-09-05T23:59:50.478Z,12.68
